createdAt,value
2023-02-12T00:02:11.483Z,0.30
2023-02-12T00:04:38.846Z,0.40
2023-02-12T00:07:05.957Z,0.30
2023-02-12T00:09:33.011Z,0.30
2023-02-12T00:12:00.349Z,0.30
2023-02-12T00:14:27.553Z,0.30
2023-02-12T00:16:54.704Z,0.30
2023-02-12T00:19:21.936Z,0.30
2023-02-12T00:21:49.001Z,0.20
2023-02-12T00:24:16.253Z,0.20
2023-02-12T00:26:43.597Z,0.20
2023-02-12T00:29:11.212Z,0.30
2023-02-12T00:31:38.543Z,0.20
2023-02-12T00:34:08.408Z,0.30
2023-02-12T00:36:35.409Z,0.30
2023-02-12T00:39:02.646Z,0.30
2023-02-12T00:41:30.553Z,0.30
2023-02-12T00:43:58.045Z,0.30
2023-02-12T00:46:25.284Z,0.20
2023-02-12T00:48:52.509Z,0.30
2023-02-12T00:51:19.660Z,0.30
2023-02-12T00:53:46.916Z,0.40
2023-02-12T00:56:14.168Z,0.40
2023-02-12T00:58:41.180Z,0.40
2023-02-12T01:01:08.445Z,0.40
2023-02-12T01:03:38.825Z,0.50
2023-02-12T01:06:06.341Z,0.50
2023-02-12T01:08:33.426Z,0.40
2023-02-12T01:11:03.470Z,0.50
2023-02-12T01:13:32.555Z,0.50
2023-02-12T01:16:04.784Z,0.50
2023-02-12T01:18:31.903Z,0.40
2023-02-12T01:21:01.639Z,0.70
2023-02-12T01:23:28.907Z,0.50
2023-02-12T01:25:56.235Z,0.40
2023-02-12T01:28:23.348Z,0.50
2023-02-12T01:30:50.276Z,0.40
2023-02-12T01:33:17.185Z,0.40
2023-02-12T01:35:44.128Z,0.50
2023-02-12T01:38:11.013Z,0.50
2023-02-12T01:40:37.967Z,0.50
2023-02-12T01:43:12.864Z,0.40
2023-02-12T01:45:53.549Z,0.50
2023-02-12T01:48:24.233Z,0.40
2023-02-12T01:50:53.232Z,0.40
2023-02-12T01:53:22.073Z,0.50
2023-02-12T01:55:52.411Z,0.50
2023-02-12T01:58:19.973Z,0.50
2023-02-12T02:00:47.147Z,0.40
2023-02-12T02:03:14.438Z,0.50
2023-02-12T02:05:54.601Z,0.40
2023-02-12T02:08:22.565Z,0.40
2023-02-12T02:10:49.573Z,0.40
2023-02-12T02:13:34.948Z,0.40
2023-02-12T02:16:14.512Z,0.30
2023-02-12T02:18:52.027Z,0.30
2023-02-12T02:21:30.537Z,0.30
2023-02-12T02:23:57.448Z,0.20
2023-02-12T02:26:54.530Z,0.20
2023-02-12T02:29:52.131Z,0.20
2023-02-12T02:33:01.962Z,0.20
2023-02-12T02:35:39.954Z,0.10
2023-02-12T02:38:31.553Z,0.10
2023-02-12T02:41:22.766Z,0.20
2023-02-12T02:43:51.570Z,0.20
2023-02-12T02:46:45.202Z,0.20
2023-02-12T02:49:28.764Z,0.10
2023-02-12T02:52:01.238Z,0.10
2023-02-12T02:54:33.670Z,0.10
2023-02-12T02:57:15.148Z,0.10
2023-02-12T02:59:49.646Z,0.10
2023-02-12T03:02:22.825Z,0.00
2023-02-12T03:05:03.183Z,0.00
2023-02-12T03:07:45.044Z,0.00
2023-02-12T03:10:18.567Z,0.00
2023-02-12T03:12:53.053Z,0.00
2023-02-12T03:15:44.120Z,-0.10
2023-02-12T03:18:13.618Z,-0.10
2023-02-12T03:20:48.692Z,-0.10
2023-02-12T03:23:26.721Z,0.00
2023-02-12T03:26:11.477Z,-0.10
2023-02-12T03:28:39.956Z,-0.10
2023-02-12T03:31:18.847Z,-0.10
2023-02-12T03:34:13.516Z,-0.20
2023-02-12T03:36:57.377Z,-0.20
2023-02-12T03:39:36.804Z,-0.20
2023-02-12T03:42:11.594Z,-0.10
2023-02-12T03:44:48.264Z,-0.10
2023-02-12T03:47:37.109Z,-0.10
2023-02-12T03:50:28.714Z,-0.20
2023-02-12T03:52:55.621Z,-0.20
2023-02-12T03:55:22.697Z,-0.20
2023-02-12T03:57:59.049Z,-0.20
2023-02-12T04:00:26.776Z,-0.30
2023-02-12T04:02:55.249Z,-0.30
2023-02-12T04:05:25.643Z,-0.20
2023-02-12T04:07:55.272Z,-0.30
2023-02-12T04:10:30.258Z,-0.40
2023-02-12T04:13:19.250Z,-0.40
2023-02-12T04:16:02.201Z,-0.40
2023-02-12T04:18:40.838Z,-0.50
2023-02-12T04:21:20.746Z,-0.50
2023-02-12T04:24:02.619Z,-0.50
2023-02-12T04:26:57.022Z,-0.50
2023-02-12T04:30:01.807Z,-0.60
2023-02-12T04:32:54.122Z,-0.70
2023-02-12T04:35:36.865Z,-0.60
2023-02-12T04:38:28.749Z,-0.60
2023-02-12T04:40:56.356Z,-0.60
2023-02-12T04:43:31.553Z,-0.60
2023-02-12T04:45:58.839Z,-0.50
2023-02-12T04:48:25.990Z,-0.50
2023-02-12T04:50:52.992Z,-0.40
2023-02-12T04:53:20.237Z,-0.40
2023-02-12T04:55:47.826Z,-0.40
2023-02-12T04:58:14.908Z,-0.40
2023-02-12T05:00:41.776Z,-0.40
2023-02-12T05:03:08.762Z,-0.40
2023-02-12T05:05:35.790Z,-0.50
2023-02-12T05:08:02.649Z,-0.50
2023-02-12T05:10:29.505Z,-0.50
2023-02-12T05:12:56.503Z,-0.60
2023-02-12T05:15:23.730Z,-0.60
2023-02-12T05:17:50.631Z,-0.60
2023-02-12T05:20:17.617Z,-0.60
2023-02-12T05:22:44.569Z,-0.60
2023-02-12T05:25:11.885Z,-0.70
2023-02-12T05:27:38.924Z,-0.70
2023-02-12T05:30:07.052Z,-0.60
2023-02-12T05:32:33.968Z,-0.60
2023-02-12T05:35:00.885Z,-0.60
2023-02-12T05:37:27.999Z,-0.60
2023-02-12T05:39:54.872Z,-0.70
2023-02-12T05:42:21.801Z,-0.60
2023-02-12T05:44:48.656Z,-0.60
2023-02-12T05:47:15.546Z,-0.60
2023-02-12T05:49:42.930Z,-0.60
2023-02-12T05:52:09.873Z,-0.50
2023-02-12T05:54:36.822Z,-0.50
2023-02-12T05:57:03.868Z,-0.50
2023-02-12T05:59:30.788Z,-0.50
2023-02-12T06:01:57.629Z,-0.40
2023-02-12T06:04:26.912Z,-0.40
2023-02-12T06:06:55.931Z,-0.20
2023-02-12T06:09:23.565Z,-0.20
2023-02-12T06:11:50.538Z,-0.20
2023-02-12T06:14:19.621Z,-0.10
2023-02-12T06:16:48.730Z,-0.10
2023-02-12T06:19:15.797Z,-0.10
2023-02-12T06:21:42.892Z,-0.10
2023-02-12T06:24:14.629Z,0.00
2023-02-12T06:26:41.713Z,0.00
2023-02-12T06:29:08.605Z,0.00
2023-02-12T06:31:37.028Z,0.00
2023-02-12T06:34:07.193Z,0.00
2023-02-12T06:36:34.617Z,0.00
2023-02-12T06:39:02.919Z,0.10
2023-02-12T06:41:30.141Z,0.10
2023-02-12T06:43:57.134Z,0.10
2023-02-12T06:46:24.474Z,0.20
2023-02-12T06:48:56.145Z,0.10
2023-02-12T06:51:23.765Z,0.10
2023-02-12T06:53:52.473Z,0.20
2023-02-12T06:56:20.879Z,0.20
2023-02-12T06:58:52.733Z,0.30
2023-02-12T07:01:22.785Z,0.30
2023-02-12T07:03:55.096Z,0.30
2023-02-12T07:06:23.062Z,0.40
2023-02-12T07:08:50.635Z,0.40
2023-02-12T07:11:17.851Z,0.40
2023-02-12T07:13:45.736Z,0.40
2023-02-12T07:16:15.563Z,0.40
2023-02-12T07:18:43.885Z,0.40
2023-02-12T07:21:11.894Z,0.30
2023-02-12T07:23:39.277Z,0.40
2023-02-12T07:26:12.673Z,0.50
2023-02-12T07:28:40.476Z,0.60
2023-02-12T07:31:08.980Z,0.60
2023-02-12T07:33:37.015Z,0.70
2023-02-12T07:36:05.379Z,0.70
2023-02-12T07:38:32.350Z,0.90
2023-02-12T07:41:12.347Z,0.90
2023-02-12T07:43:43.782Z,1.10
2023-02-12T07:46:41.165Z,1.10
2023-02-12T07:49:12.257Z,1.20
2023-02-12T07:51:39.045Z,1.40
2023-02-12T07:54:05.995Z,1.50
2023-02-12T07:56:35.722Z,1.80
2023-02-12T07:59:06.750Z,2.20
2023-02-12T08:01:35.117Z,2.50
2023-02-12T08:04:08.595Z,2.90
2023-02-12T08:06:39.291Z,3.20
2023-02-12T08:09:08.288Z,3.60
2023-02-12T08:11:35.692Z,3.40
2023-02-12T08:14:05.329Z,3.50
2023-02-12T08:16:36.052Z,3.50
2023-02-12T08:19:16.100Z,4.10
2023-02-12T08:21:47.424Z,4.20
2023-02-12T08:24:14.440Z,4.80
2023-02-12T08:26:41.390Z,5.10
2023-02-12T08:29:17.622Z,4.70
2023-02-12T08:31:47.080Z,4.00
2023-02-12T08:34:24.339Z,4.10
2023-02-12T08:36:54.233Z,4.00
2023-02-12T08:39:22.306Z,4.10
2023-02-12T08:41:49.692Z,3.70
2023-02-12T08:44:17.726Z,3.30
2023-02-12T08:46:47.202Z,3.00
2023-02-12T08:49:20.665Z,2.90
2023-02-12T08:51:50.917Z,3.00
2023-02-12T08:54:21.001Z,3.30
2023-02-12T08:56:48.009Z,4.00
2023-02-12T08:59:16.744Z,4.50
2023-02-12T09:01:45.096Z,5.00
2023-02-12T09:04:24.910Z,5.30
2023-02-12T09:06:52.143Z,5.90
2023-02-12T09:09:19.959Z,6.30
2023-02-12T09:11:47.305Z,6.00
2023-02-12T09:14:16.739Z,5.30
2023-02-12T09:16:44.934Z,5.00
2023-02-12T09:19:14.644Z,5.10
2023-02-12T09:21:41.990Z,5.20
2023-02-12T09:24:09.674Z,5.20
2023-02-12T09:26:36.805Z,5.30
2023-02-12T09:29:04.473Z,4.80
2023-02-12T09:31:33.236Z,5.10
2023-02-12T09:34:03.736Z,5.00
2023-02-12T09:36:31.727Z,5.10
2023-02-12T09:39:00.122Z,5.40
2023-02-12T09:41:54.360Z,5.30
2023-02-12T09:44:50.880Z,6.00
2023-02-12T09:47:27.488Z,6.80
2023-02-12T09:50:11.266Z,6.60
2023-02-12T09:52:38.514Z,6.10
2023-02-12T09:55:05.845Z,6.10
2023-02-12T09:57:38.073Z,6.40
2023-02-12T10:00:14.790Z,6.30
2023-02-12T10:02:41.984Z,6.30
2023-02-12T10:05:35.688Z,6.30
2023-02-12T10:08:08.591Z,6.70
2023-02-12T10:10:47.458Z,6.70
2023-02-12T10:13:35.557Z,7.10
2023-02-12T10:16:17.507Z,6.90
2023-02-12T10:19:11.406Z,6.20
2023-02-12T10:21:56.542Z,6.20
2023-02-12T10:24:26.475Z,5.50
2023-02-12T10:26:57.883Z,4.60
2023-02-12T10:29:34.093Z,4.50
2023-02-12T10:32:07.549Z,4.30
2023-02-12T10:34:37.088Z,3.90
2023-02-12T10:37:13.036Z,3.70
2023-02-12T10:39:46.994Z,3.50
2023-02-12T10:42:18.376Z,3.40
2023-02-12T10:44:45.332Z,3.20
2023-02-12T10:47:19.090Z,3.20
2023-02-12T10:49:47.574Z,3.20
2023-02-12T10:52:39.269Z,3.30
2023-02-12T10:55:31.332Z,3.10
2023-02-12T10:57:59.840Z,3.10
2023-02-12T11:00:26.802Z,2.90
2023-02-12T11:03:21.626Z,2.90
2023-02-12T11:05:49.126Z,2.80
2023-02-12T11:08:46.086Z,3.10
2023-02-12T11:11:21.417Z,3.40
2023-02-12T11:14:05.037Z,3.30
2023-02-12T11:16:38.060Z,3.30
2023-02-12T11:19:21.604Z,3.40
2023-02-12T11:21:49.504Z,3.80
2023-02-12T11:24:32.061Z,4.30
2023-02-12T11:27:16.801Z,4.20
2023-02-12T11:29:48.715Z,4.40
2023-02-12T11:32:18.912Z,4.70
2023-02-12T11:35:15.795Z,5.00
2023-02-12T11:37:44.949Z,4.90
2023-02-12T11:40:35.973Z,5.00
2023-02-12T11:43:06.516Z,4.70
2023-02-12T11:45:44.955Z,4.20
2023-02-12T11:48:25.904Z,4.20
2023-02-12T11:50:56.433Z,3.90
2023-02-12T11:53:42.791Z,3.60
2023-02-12T11:56:13.532Z,3.50
2023-02-12T11:58:40.696Z,3.40
2023-02-12T12:01:19.618Z,3.50
2023-02-12T12:04:01.390Z,3.30
2023-02-12T12:06:53.012Z,3.30
2023-02-12T12:09:37.335Z,3.30
2023-02-12T12:12:19.171Z,3.30
2023-02-12T12:15:07.839Z,3.20
2023-02-12T12:18:00.864Z,3.30
2023-02-12T12:20:32.063Z,3.50
2023-02-12T12:23:32.319Z,3.40
2023-02-12T12:26:27.554Z,3.20
2023-02-12T12:29:19.089Z,3.00
2023-02-12T12:31:55.264Z,3.00
2023-02-12T12:34:27.808Z,2.90
2023-02-12T12:37:02.550Z,2.90
2023-02-12T12:39:38.205Z,2.90
2023-02-12T12:42:45.902Z,2.90
2023-02-12T12:45:42.652Z,2.90
2023-02-12T12:48:21.434Z,2.90
2023-02-12T12:51:06.866Z,2.90
2023-02-12T12:53:58.111Z,2.90
2023-02-12T12:56:40.002Z,2.80
2023-02-12T12:59:32.515Z,2.80
2023-02-12T13:02:44.509Z,2.80
2023-02-12T13:05:35.542Z,2.80
2023-02-12T13:08:37.582Z,2.90
2023-02-12T13:11:12.748Z,2.80
2023-02-12T13:13:46.494Z,2.80
2023-02-12T13:16:25.291Z,2.70
2023-02-12T13:19:01.253Z,2.80
2023-02-12T13:21:52.318Z,2.80
2023-02-12T13:24:30.177Z,2.80
2023-02-12T13:27:12.945Z,2.90
2023-02-12T13:29:51.602Z,2.90
2023-02-12T13:32:37.103Z,2.90
2023-02-12T13:35:06.402Z,2.90
2023-02-12T13:37:48.791Z,2.90
2023-02-12T13:40:22.597Z,2.90
2023-02-12T13:43:09.192Z,2.80
2023-02-12T13:45:41.727Z,2.90
2023-02-12T13:48:30.511Z,2.80
2023-02-12T13:51:09.487Z,2.80
2023-02-12T13:54:10.219Z,2.80
2023-02-12T13:56:49.408Z,2.80
2023-02-12T14:00:08.342Z,2.70
2023-02-12T14:02:37.336Z,2.80
2023-02-12T14:05:18.855Z,2.70
2023-02-12T14:08:00.985Z,2.70
2023-02-12T14:10:32.333Z,2.80
2023-02-12T14:13:11.050Z,2.70
2023-02-12T14:15:44.625Z,2.70
2023-02-12T14:18:28.720Z,2.70
2023-02-12T14:21:13.797Z,2.70
2023-02-12T14:23:43.024Z,2.80
2023-02-12T14:26:14.547Z,2.80
2023-02-12T14:28:44.215Z,2.80
2023-02-12T14:31:20.913Z,2.80
2023-02-12T14:33:53.044Z,2.80
2023-02-12T14:36:41.562Z,2.80
2023-02-12T14:39:20.570Z,2.80
2023-02-12T14:42:15.220Z,2.80
2023-02-12T14:44:48.195Z,2.80
2023-02-12T14:47:37.044Z,2.80
2023-02-12T14:50:14.502Z,2.80
2023-02-12T14:52:45.845Z,2.80
2023-02-12T14:55:30.335Z,2.80
2023-02-12T14:58:00.264Z,2.80
2023-02-12T15:00:41.366Z,2.80
2023-02-12T15:03:18.525Z,2.80
2023-02-12T15:06:03.657Z,2.70
2023-02-12T15:08:45.239Z,2.70
2023-02-12T15:11:23.966Z,2.70
2023-02-12T15:14:01.627Z,2.70
2023-02-12T15:16:47.106Z,2.70
2023-02-12T15:19:13.959Z,2.70
2023-02-12T15:21:41.351Z,2.70
2023-02-12T15:24:14.352Z,2.70
2023-02-12T15:26:50.724Z,2.60
2023-02-12T15:29:28.480Z,2.60
2023-02-12T15:32:04.599Z,2.60
2023-02-12T15:34:34.339Z,2.60
2023-02-12T15:37:03.703Z,2.50
2023-02-12T15:39:43.796Z,2.50
2023-02-12T15:42:57.059Z,2.50
2023-02-12T15:45:29.165Z,2.40
2023-02-12T15:48:20.010Z,2.40
2023-02-12T15:51:12.734Z,2.40
2023-02-12T15:53:40.221Z,2.40
2023-02-12T15:56:13.942Z,2.40
2023-02-12T15:59:01.611Z,2.40
2023-02-12T16:01:31.961Z,2.30
2023-02-12T16:04:01.492Z,2.30
2023-02-12T16:06:32.006Z,2.30
2023-02-12T16:09:04.981Z,2.30
2023-02-12T16:11:33.187Z,2.40
2023-02-12T16:14:03.452Z,2.40
2023-02-12T16:16:40.854Z,2.30
2023-02-12T16:19:27.849Z,2.40
2023-02-12T16:22:16.260Z,2.40
2023-02-12T16:24:49.406Z,2.50
2023-02-12T16:27:16.360Z,2.50
2023-02-12T16:29:49.661Z,2.50
2023-02-12T16:32:33.584Z,2.50
2023-02-12T16:35:10.866Z,2.50
2023-02-12T16:37:37.730Z,2.50
2023-02-12T16:40:13.673Z,2.50
2023-02-12T16:42:46.591Z,2.50
2023-02-12T16:45:28.828Z,2.60
2023-02-12T16:48:14.418Z,2.60
2023-02-12T16:50:56.414Z,2.60
2023-02-12T16:53:43.130Z,2.60
2023-02-12T16:56:18.278Z,2.60
2023-02-12T16:58:46.936Z,2.60
2023-02-12T17:01:26.911Z,2.70
2023-02-12T17:03:55.299Z,2.70
2023-02-12T17:06:25.092Z,2.70
2023-02-12T17:08:52.642Z,2.70
2023-02-12T17:11:20.892Z,2.80
2023-02-12T17:13:49.873Z,2.80
2023-02-12T17:16:29.771Z,2.80
2023-02-12T17:18:57.692Z,2.80
2023-02-12T17:21:31.199Z,2.90
2023-02-12T17:23:58.160Z,2.80
2023-02-12T17:26:25.841Z,2.90
2023-02-12T17:28:52.699Z,2.90
2023-02-12T17:31:20.916Z,2.90
2023-02-12T17:33:47.902Z,2.90
2023-02-12T17:36:14.787Z,2.90
2023-02-12T17:38:41.648Z,2.90
2023-02-12T17:41:10.588Z,3.00
2023-02-12T17:43:37.514Z,2.90
2023-02-12T17:46:19.061Z,3.00
2023-02-12T17:48:46.315Z,3.00
2023-02-12T17:51:13.673Z,3.00
2023-02-12T17:53:40.964Z,3.00
2023-02-12T17:56:16.037Z,3.00
2023-02-12T17:58:43.884Z,3.00
2023-02-12T18:01:13.069Z,3.00
2023-02-12T18:03:40.562Z,3.00
2023-02-12T18:06:08.883Z,3.00
2023-02-12T18:08:35.971Z,3.10
2023-02-12T18:11:12.167Z,3.00
2023-02-12T18:13:39.570Z,3.10
2023-02-12T18:16:08.336Z,3.10
2023-02-12T18:18:36.319Z,3.10
2023-02-12T18:21:10.957Z,3.10
2023-02-12T18:23:38.554Z,3.10
2023-02-12T18:26:10.323Z,3.10
2023-02-12T18:28:38.209Z,3.20
2023-02-12T18:31:06.727Z,3.10
2023-02-12T18:33:34.355Z,3.20
2023-02-12T18:36:07.170Z,3.20
2023-02-12T18:38:38.661Z,3.20
2023-02-12T18:41:15.087Z,3.10
2023-02-12T18:43:45.122Z,3.20
2023-02-12T18:46:20.905Z,3.20
2023-02-12T18:48:48.692Z,3.20
2023-02-12T18:51:19.422Z,3.20
2023-02-12T18:53:46.477Z,3.20
2023-02-12T18:56:15.977Z,3.20
2023-02-12T18:58:42.870Z,3.20
2023-02-12T19:01:18.931Z,3.20
2023-02-12T19:03:46.923Z,3.20
2023-02-12T19:06:13.943Z,3.30
2023-02-12T19:08:40.972Z,3.30
2023-02-12T19:11:09.944Z,3.30
2023-02-12T19:13:36.941Z,3.30
2023-02-12T19:16:12.813Z,3.30
2023-02-12T19:18:40.225Z,3.30
2023-02-12T19:21:08.362Z,3.30
2023-02-12T19:23:35.730Z,3.30
2023-02-12T19:26:05.308Z,3.40
2023-02-12T19:28:32.365Z,3.30
2023-02-12T19:31:01.126Z,3.30
2023-02-12T19:33:28.193Z,3.30
2023-02-12T19:35:55.059Z,3.30
2023-02-12T19:38:21.949Z,3.40
2023-02-12T19:40:48.890Z,3.40
2023-02-12T19:43:15.884Z,3.40
2023-02-12T19:45:42.891Z,3.30
2023-02-12T19:48:09.791Z,3.40
2023-02-12T19:50:36.684Z,3.40
2023-02-12T19:53:03.553Z,3.40
2023-02-12T19:55:30.423Z,3.30
2023-02-12T19:57:57.305Z,3.40
2023-02-12T20:00:24.280Z,3.40
2023-02-12T20:02:51.168Z,3.30
2023-02-12T20:05:18.420Z,3.30
2023-02-12T20:07:45.290Z,3.40
2023-02-12T20:10:12.585Z,3.40
2023-02-12T20:12:41.270Z,3.40
2023-02-12T20:15:08.656Z,3.40
2023-02-12T20:17:35.526Z,3.40
2023-02-12T20:20:03.369Z,3.40
2023-02-12T20:22:30.257Z,3.40
2023-02-12T20:24:57.200Z,3.40
2023-02-12T20:27:24.059Z,3.40
2023-02-12T20:29:50.928Z,3.40
2023-02-12T20:32:17.775Z,3.40
2023-02-12T20:34:50.796Z,3.50
2023-02-12T20:37:18.966Z,3.50
2023-02-12T20:39:48.104Z,3.50
2023-02-12T20:42:14.974Z,3.50
2023-02-12T20:44:41.837Z,3.60
2023-02-12T20:47:08.733Z,3.60
2023-02-12T20:49:35.863Z,3.60
2023-02-12T20:52:05.135Z,3.60
2023-02-12T20:54:32.055Z,3.70
2023-02-12T20:56:58.932Z,3.70
2023-02-12T20:59:26.268Z,3.60
2023-02-12T21:01:53.261Z,3.70
2023-02-12T21:04:20.568Z,3.70
2023-02-12T21:06:48.618Z,3.70
2023-02-12T21:09:16.225Z,3.70
2023-02-12T21:11:45.811Z,3.70
2023-02-12T21:14:23.594Z,3.80
2023-02-12T21:16:52.249Z,3.80
2023-02-12T21:19:19.449Z,3.80
2023-02-12T21:21:46.985Z,3.70
2023-02-12T21:24:22.309Z,3.70
2023-02-12T21:26:49.730Z,3.80
2023-02-12T21:29:17.147Z,3.80
2023-02-12T21:31:48.121Z,3.80
2023-02-12T21:34:20.510Z,3.80
2023-02-12T21:36:48.928Z,3.90
2023-02-12T21:39:27.450Z,3.80
2023-02-12T21:41:58.052Z,3.80
2023-02-12T21:44:26.111Z,3.80
2023-02-12T21:46:53.849Z,3.90
2023-02-12T21:49:28.204Z,3.90
2023-02-12T21:52:02.318Z,3.80
2023-02-12T21:54:30.612Z,3.80
2023-02-12T21:56:58.766Z,3.80
2023-02-12T21:59:26.665Z,3.80
2023-02-12T22:01:59.188Z,3.80
2023-02-12T22:04:26.475Z,3.90
2023-02-12T22:06:54.121Z,3.80
2023-02-12T22:09:22.698Z,3.80
2023-02-12T22:11:52.167Z,3.80
2023-02-12T22:14:19.479Z,3.80
2023-02-12T22:16:47.801Z,3.80
2023-02-12T22:19:15.059Z,3.90
2023-02-12T22:21:42.683Z,3.90
2023-02-12T22:24:14.927Z,3.90
2023-02-12T22:26:41.919Z,3.90
2023-02-12T22:29:15.168Z,3.90
2023-02-12T22:31:44.470Z,3.90
2023-02-12T22:34:14.401Z,3.80
2023-02-12T22:36:42.195Z,3.80
2023-02-12T22:39:10.635Z,3.80
2023-02-12T22:41:38.040Z,3.80
2023-02-12T22:44:05.356Z,3.80
2023-02-12T22:46:33.262Z,3.80
2023-02-12T22:49:00.614Z,3.80
2023-02-12T22:51:30.428Z,3.80
2023-02-12T22:53:58.283Z,3.80
2023-02-12T22:56:26.323Z,3.80
2023-02-12T22:58:57.465Z,3.80
2023-02-12T23:01:25.681Z,3.80
2023-02-12T23:03:53.038Z,3.80
2023-02-12T23:06:22.827Z,3.80
2023-02-12T23:08:55.058Z,3.80
2023-02-12T23:11:24.579Z,3.80
2023-02-12T23:13:52.260Z,3.80
2023-02-12T23:16:19.210Z,3.80
2023-02-12T23:18:46.257Z,3.80
2023-02-12T23:21:13.391Z,3.80
2023-02-12T23:23:40.509Z,3.80
2023-02-12T23:26:07.532Z,3.80
2023-02-12T23:28:34.502Z,3.80
2023-02-12T23:31:03.998Z,3.80
2023-02-12T23:33:31.039Z,3.70
2023-02-12T23:35:57.941Z,3.70
2023-02-12T23:38:24.930Z,3.70
2023-02-12T23:40:51.922Z,3.70
2023-02-12T23:43:18.815Z,3.80
2023-02-12T23:45:46.385Z,3.80
2023-02-12T23:48:13.928Z,3.80
2023-02-12T23:50:41.479Z,3.70
2023-02-12T23:53:10.223Z,3.70
2023-02-12T23:55:38.437Z,3.70
2023-02-12T23:58:06.423Z,3.70
